Time;durP1;ratioP1;P1;durP2;ratioP2;P2;SDS_P1;SDS_P2;PMS_P1;PMS_P2;Temp;Humidity;BMP_temperature;BMP_pressure;BME280_temperature;BME280_humidity;BME280_pressure;Samples;Min_cycle;Max_cycle;Signal;HPM_P1;HPM_P2
2022/06/07 04:04:54;;;;;;;3.10;2.90;;;;;;;17.55;100.00;100217.09;5753014;27;20389;-85
2022/06/07 04:08:13;;;;;;;3.75;3.40;;;;;;;17.69;99.48;100213.16;5378940;33;34312;-85
2022/06/07 04:11:18;;;;;;;3.83;2.90;;;;;;;17.84;99.22;100213.66;5378820;33;34971;-85
2022/06/07 04:14:22;;;;;;;3.25;2.87;;;;;;;17.93;97.21;100207.88;5379020;33;35312;-85
2022/06/07 04:17:25;;;;;;;3.40;3.10;;;;;;;18.04;96.47;100205.19;5378803;33;34529;-85
2022/06/07 04:20:28;;;;;;;2.97;2.75;;;;;;;18.17;96.11;100190.56;5378648;33;34100;-85
2022/06/07 04:23:33;;;;;;;2.95;2.33;;;;;;;18.31;93.76;100183.00;5376951;33;34572;-85
2022/06/07 04:26:36;;;;;;;2.60;2.40;;;;;;;18.48;93.28;100188.59;5379188;33;34423;-85
2022/06/07 04:29:38;;;;;;;3.50;2.28;;;;;;;18.61;92.69;100187.56;5378793;33;34478;-86
2022/06/07 04:32:47;;;;;;;4.70;2.40;;;;;;;18.72;90.39;100184.88;5378576;33;34004;-85
2022/06/07 04:35:51;;;;;;;2.78;2.45;;;;;;;18.95;89.58;100188.66;5380531;33;34334;-84
2022/06/07 04:38:57;;;;;;;2.67;2.08;;;;;;;19.09;87.83;100179.19;5380439;33;34813;-84
2022/06/07 04:42:00;;;;;;;2.95;2.28;;;;;;;19.28;86.33;100181.78;5365443;33;34259;-85
2022/06/07 04:45:06;;;;;;;2.65;2.17;;;;;;;19.40;86.08;100180.69;5390101;33;34025;-88
2022/06/07 04:48:11;;;;;;;2.40;2.20;;;;;;;19.55;84.85;100177.44;5380838;33;35318;-90
2022/06/07 04:51:19;;;;;;;1.80;1.70;;;;;;;19.66;84.61;100171.16;5378091;33;33978;-86
2022/06/07 04:54:23;;;;;;;2.20;2.00;;;;;;;19.79;83.49;100178.22;5378641;33;33579;-86
2022/06/07 04:57:29;;;;;;;1.85;1.75;;;;;;;19.93;82.79;100184.22;5379051;33;35364;-86
2022/06/07 05:00:32;;;;;;;3.40;1.87;;;;;;;20.00;81.81;100175.87;5365705;33;33535;-86
2022/06/07 05:03:35;;;;;;;1.83;1.73;;;;;;;20.10;81.76;100178.81;5377706;32;33963;-86
2022/06/07 05:06:41;;;;;;;1.83;1.73;;;;;;;20.24;81.36;100185.63;5362614;33;33942;-86
2022/06/07 05:09:48;;;;;;;2.10;2.00;;;;;;;20.36;81.62;100180.91;5360802;33;33685;-86
2022/06/07 05:12:51;;;;;;;2.03;1.90;;;;;;;20.46;80.50;100187.62;5361278;33;33971;-86
2022/06/07 05:15:54;;;;;;;1.87;1.77;;;;;;;20.57;78.95;100184.84;5361802;33;33972;-86
2022/06/07 05:18:58;;;;;;;2.12;1.92;;;;;;;20.72;78.78;100186.16;5360306;33;34882;-86
2022/06/07 05:22:03;;;;;;;2.30;2.05;;;;;;;20.81;79.00;100185.50;5360224;33;33633;-86
2022/06/07 05:25:08;;;;;;;2.00;1.80;;;;;;;20.96;78.20;100195.84;5359525;33;35001;-86
2022/06/07 05:28:13;;;;;;;2.00;1.90;;;;;;;21.05;77.20;100191.59;5358924;33;33439;-86
2022/06/07 05:31:16;;;;;;;1.80;1.65;;;;;;;21.17;76.21;100194.22;5359346;33;34790;-86
2022/06/07 05:34:20;;;;;;;1.70;1.60;;;;;;;21.27;74.97;100204.50;5358579;33;34174;-86
2022/06/07 05:37:24;;;;;;;1.87;1.75;;;;;;;21.44;74.60;100197.09;5359795;33;34292;-86
2022/06/07 05:40:30;;;;;;;2.10;1.90;;;;;;;21.56;74.34;100196.97;5360209;33;33954;-86
2022/06/07 05:43:32;;;;;;;2.47;1.90;;;;;;;21.64;72.93;100193.75;5347291;33;32452;-86
2022/06/07 05:46:35;;;;;;;1.80;1.70;;;;;;;21.78;72.35;100194.22;5364513;33;34294;-86
2022/06/07 05:49:40;;;;;;;2.92;1.85;;;;;;;21.86;71.67;100192.94;5365968;33;34921;-86
2022/06/07 05:52:43;;;;;;;1.52;1.42;;;;;;;22.05;70.44;100196.13;5374667;33;33976;-86
2022/06/07 05:55:47;;;;;;;1.70;1.60;;;;;;;22.16;68.70;100197.91;5374013;33;33874;-86
2022/06/07 05:58:50;;;;;;;1.40;1.30;;;;;;;22.19;68.62;100189.19;5363445;33;33998;-86
2022/06/07 06:01:53;;;;;;;1.60;1.50;;;;;;;22.36;68.13;100189.91;5359642;33;34015;-86
2022/06/07 06:04:58;;;;;;;2.08;1.95;;;;;;;22.57;67.67;100182.66;5361963;33;34214;-86
2022/06/07 06:11:27;;;;;;;1.75;1.62;;;;;;;22.85;66.75;100181.53;5361476;33;34692;-85
2022/06/07 06:14:33;;;;;;;2.17;1.55;;;;;;;22.92;66.97;100183.22;5361672;33;34869;-86
2022/06/07 06:17:36;;;;;;;1.45;1.35;;;;;;;22.99;66.54;100187.41;5361475;33;34009;-86
2022/06/07 06:20:40;;;;;;;2.00;1.48;;;;;;;23.11;66.82;100173.47;5361078;33;34532;-90
2022/06/07 06:23:44;;;;;;;1.60;1.50;;;;;;;23.24;65.96;100180.41;5359428;33;34530;-91
2022/06/07 06:26:47;;;;;;;1.95;1.65;;;;;;;23.42;64.50;100187.38;5361444;33;34243;-90
2022/06/07 06:29:51;;;;;;;3.62;1.60;;;;;;;23.36;64.76;100185.69;5360638;33;33664;-87
2022/06/07 06:32:54;;;;;;;1.52;1.42;;;;;;;23.42;63.90;100181.88;5361394;33;34819;-86
2022/06/07 06:35:58;;;;;;;2.78;1.40;;;;;;;23.31;63.15;100179.09;5357023;33;34730;-86
2022/06/07 06:39:05;;;;;;;2.65;1.15;;;;;;;23.47;62.49;100171.72;5359600;33;33526;-86
2022/06/07 06:42:11;;;;;;;1.50;1.40;;;;;;;23.69;61.53;100177.06;5362113;33;35088;-86
2022/06/07 06:45:26;;;;;;;0.90;0.90;;;;;;;23.80;58.87;100177.09;5357897;33;33813;-85
2022/06/07 06:48:30;;;;;;;1.42;1.33;;;;;;;23.89;58.67;100169.97;5347504;33;32786;-85
2022/06/07 06:51:33;;;;;;;2.85;1.42;;;;;;;23.86;58.85;100176.84;5358944;33;33091;-86
2022/06/07 06:54:37;;;;;;;1.10;1.10;;;;;;;23.83;58.91;100171.06;5359498;33;33623;-86
2022/06/07 06:57:40;;;;;;;1.42;1.33;;;;;;;24.09;59.40;100167.25;5352999;33;34226;-86
2022/06/07 07:00:44;;;;;;;1.60;1.10;;;;;;;24.28;57.03;100167.56;5361238;33;32744;-86
2022/06/07 07:03:47;;;;;;;1.00;1.00;;;;;;;24.46;57.46;100157.16;5361322;33;34197;-86
2022/06/07 07:06:53;;;;;;;1.08;1.08;;;;;;;24.53;55.05;100158.50;5360517;33;33984;-86
2022/06/07 07:09:56;;;;;;;0.50;0.50;;;;;;;24.59;55.79;100159.34;5365950;33;34297;-86
2022/06/07 07:12:59;;;;;;;1.10;1.10;;;;;;;24.75;53.79;100162.91;5362936;33;34464;-85
2022/06/07 07:16:07;;;;;;;2.75;0.90;;;;;;;25.02;53.22;100162.59;5361432;33;33928;-86
2022/06/07 07:19:12;;;;;;;2.20;0.70;;;;;;;25.10;53.76;100162.84;5364296;33;34780;-86
2022/06/07 07:22:16;;;;;;;0.95;0.95;;;;;;;25.19;52.01;100168.63;5349882;33;33343;-86
2022/06/07 07:25:19;;;;;;;1.02;0.90;;;;;;;25.36;52.20;100154.53;5364739;33;33982;-86
2022/06/07 07:28:22;;;;;;;0.88;0.88;;;;;;;24.89;52.82;100151.06;5369426;33;33964;-86
2022/06/07 07:31:30;;;;;;;1.23;0.93;;;;;;;25.08;52.48;100158.72;5374498;33;34456;-86
2022/06/07 07:34:34;;;;;;;0.90;0.90;;;;;;;25.28;51.83;100152.34;5376525;33;35329;-86
2022/06/07 07:37:37;;;;;;;1.02;0.50;;;;;;;25.17;51.84;100156.25;5362851;33;32501;-86
2022/06/07 07:40:41;;;;;;;1.17;1.08;;;;;;;25.13;50.35;100150.44;5362657;33;33997;-86
2022/06/07 07:43:46;;;;;;;1.12;1.10;;;;;;;25.05;52.37;100149.06;5365130;33;35431;-86
2022/06/07 07:46:51;;;;;;;0.82;0.82;;;;;;;25.23;51.50;100147.66;5347886;33;33017;-86
2022/06/07 07:49:55;;;;;;;1.10;1.00;;;;;;;25.45;53.38;100139.06;5360931;33;33906;-86
2022/06/07 07:52:59;;;;;;;2.50;1.05;;;;;;;25.84;50.60;100134.75;5359695;33;35459;-85
2022/06/07 07:56:07;;;;;;;1.05;0.95;;;;;;;25.84;51.26;100134.75;5359485;33;32386;-85
2022/06/07 07:59:13;;;;;;;0.70;0.70;;;;;;;25.94;49.79;100141.00;5357879;33;33750;-84
2022/06/07 08:02:19;;;;;;;0.73;0.73;;;;;;;26.09;49.16;100144.75;5344699;33;34753;-85
2022/06/07 08:05:30;;;;;;;0.82;0.82;;;;;;;26.29;48.14;100141.03;5357273;33;34846;-89
2022/06/07 08:08:34;;;;;;;0.75;0.75;;;;;;;26.44;48.05;100135.37;5354941;33;33543;-86
2022/06/07 08:11:41;;;;;;;0.80;0.80;;;;;;;26.50;48.47;100131.50;5360546;33;34533;-86
2022/06/07 08:14:44;;;;;;;1.30;0.90;;;;;;;26.46;48.01;100128.47;5360100;33;34990;-86
2022/06/07 08:17:47;;;;;;;1.02;0.77;;;;;;;26.37;47.87;100127.44;5351703;33;34037;-86
2022/06/07 08:20:50;;;;;;;0.80;0.80;;;;;;;26.48;47.02;100117.12;5372978;33;33947;-85
2022/06/07 08:23:55;;;;;;;4.78;0.90;;;;;;;26.65;47.13;100105.69;5372368;33;34384;-85
2022/06/07 08:26:58;;;;;;;2.47;0.90;;;;;;;26.68;47.24;100110.63;5374471;33;35520;-85
2022/06/07 08:30:00;;;;;;;2.78;0.60;;;;;;;26.79;45.45;100114.91;5372866;33;34518;-85
2022/06/07 08:37:33;;;;;;;0.85;0.70;;;;;;;26.96;46.13;100111.69;5366447;33;33968;-85
2022/06/07 08:39:49;;;;;;;0.82;0.80;;;;;;;27.19;44.06;100103.72;5358903;33;35144;-84
2022/06/07 08:42:58;;;;;;;0.50;0.50;;;;;;;27.11;43.75;100094.94;5359203;33;33915;-84
2022/06/07 08:46:01;;;;;;;0.60;0.60;;;;;;;27.12;44.37;100093.00;5344611;33;32624;-85
2022/06/07 08:49:05;;;;;;;2.83;0.77;;;;;;;27.25;43.39;100100.59;5359573;33;33586;-85
2022/06/07 08:52:12;;;;;;;1.10;0.80;;;;;;;27.18;42.46;100100.16;5337552;33;33873;-85
2022/06/07 08:55:24;;;;;;;0.52;0.52;;;;;;;26.74;43.36;100101.19;5350882;33;34003;-85
2022/06/07 08:58:34;;;;;;;1.75;0.90;;;;;;;26.53;44.18;100096.94;5359491;33;34229;-85
2022/06/07 09:02:17;;;;;;;0.90;0.90;;;;;;;26.36;45.13;100095.44;5359405;33;33989;-85
2022/06/07 09:05:19;;;;;;;2.15;0.80;;;;;;;26.88;45.03;100084.72;5361675;33;34307;-85
2022/06/07 09:08:25;;;;;;;0.47;0.47;;;;;;;27.42;43.20;100079.94;5359563;33;33498;-85
2022/06/07 09:15:19;;;;;;;0.43;0.43;;;;;;;28.01;40.79;100093.19;5366719;33;34049;-85
2022/06/07 09:18:28;;;;;;;0.90;0.60;;;;;;;27.33;43.21;100085.31;5358477;33;32492;-85
2022/06/07 09:21:31;;;;;;;0.75;0.70;;;;;;;27.11;43.63;100080.28;5359322;33;33904;-85
2022/06/07 09:24:40;;;;;;;0.82;0.82;;;;;;;26.89;43.79;100083.59;5346849;33;32897;-85
2022/06/07 09:27:48;;;;;;;0.70;0.70;;;;;;;27.24;44.15;100079.62;5359901;33;33565;-85
2022/06/07 09:30:59;;;;;;;0.80;0.80;;;;;;;27.94;41.70;100067.84;5359560;33;34234;-85
2022/06/07 09:34:07;;;;;;;0.50;0.50;;;;;;;28.70;40.57;100071.25;5359666;33;34189;-85
2022/06/07 09:37:16;;;;;;;0.73;0.68;;;;;;;28.99;39.40;100072.06;5361006;33;34769;-85
2022/06/07 09:40:24;;;;;;;0.60;0.60;;;;;;;28.83;39.58;100060.47;5365006;33;33947;-85
2022/06/07 09:43:37;;;;;;;0.62;0.60;;;;;;;29.08;39.38;100059.19;5360156;33;33963;-85
2022/06/07 09:46:43;;;;;;;0.73;0.73;;;;;;;29.54;38.19;100056.22;5363183;33;33988;-85
2022/06/07 09:50:14;;;;;;;0.70;0.70;;;;;;;29.67;37.90;100053.75;5367411;33;34056;-85
2022/06/07 09:53:17;;;;;;;1.48;1.00;;;;;;;29.84;38.20;100056.66;5331675;33;34463;-85
2022/06/07 09:56:47;;;;;;;0.85;0.85;;;;;;;29.39;37.98;100053.78;5352277;33;32728;-86
2022/06/07 10:00:05;;;;;;;0.52;0.52;;;;;;;29.31;37.15;100048.94;5364986;33;34921;-85
2022/06/07 10:03:32;;;;;;;0.40;0.40;;;;;;;29.57;36.55;100043.66;5376106;33;34087;-85
2022/06/07 10:06:50;;;;;;;1.05;0.80;;;;;;;29.26;37.00;100040.78;5376286;33;33530;-85
2022/06/07 10:10:16;;;;;;;2.15;0.80;;;;;;;29.22;38.11;100029.50;5362727;33;34427;-85
2022/06/07 10:13:19;;;;;;;3.97;0.85;;;;;;;28.76;38.71;100041.50;5366886;33;34397;-85
2022/06/07 10:16:48;;;;;;;0.80;0.80;;;;;;;29.20;37.43;100036.47;5364768;33;34049;-85
2022/06/07 10:20:14;;;;;;;0.80;0.73;;;;;;;28.88;37.36;100032.66;5350001;33;32463;-89
2022/06/07 10:23:31;;;;;;;0.60;0.60;;;;;;;28.22;37.98;100026.41;5359146;33;33542;-85
2022/06/07 10:26:48;;;;;;;2.25;0.82;;;;;;;28.81;38.72;100021.16;5362123;33;34804;-85
2022/06/07 10:30:16;;;;;;;0.70;0.65;;;;;;;30.16;35.90;100011.16;5363217;33;33772;-86
2022/06/07 10:33:40;;;;;;;0.93;0.90;;;;;;;30.78;34.28;100015.88;5363063;33;33610;-85
2022/06/07 10:37:07;;;;;;;0.57;0.55;;;;;;;31.35;35.77;100007.53;5363444;33;33709;-85
2022/06/07 10:40:18;;;;;;;0.62;0.62;;;;;;;31.89;32.58;100000.81;5372320;33;35163;-85
2022/06/07 10:43:25;;;;;;;0.70;0.70;;;;;;;32.60;32.62;99994.75;5368133;33;34201;-85
2022/06/07 10:46:29;;;;;;;0.80;0.80;;;;;;;31.87;32.02;99992.78;5363995;33;34460;-85
2022/06/07 10:49:46;;;;;;;0.60;0.60;;;;;;;31.35;33.53;99990.00;5360219;33;33803;-85
2022/06/07 10:53:05;;;;;;;0.98;0.80;;;;;;;31.87;34.05;99989.19;5347533;33;33431;-90
2022/06/07 10:56:42;;;;;;;1.02;0.90;;;;;;;32.48;31.63;99979.53;5340170;33;34960;-85
2022/06/07 10:59:45;;;;;;;0.50;0.50;;;;;;;32.69;30.17;99981.56;5341230;33;34612;-86
2022/06/07 11:03:02;;;;;;;1.20;0.85;;;;;;;33.14;30.45;99965.09;5350303;33;32743;-85
2022/06/07 11:09:43;;;;;;;0.70;0.70;;;;;;;31.70;30.72;99964.97;5370378;33;33678;-85
2022/06/07 11:13:01;;;;;;;1.00;0.73;;;;;;;32.43;28.99;99956.59;5365869;33;33747;-85
2022/06/07 11:16:06;;;;;;;0.60;0.60;;;;;;;33.34;28.92;99954.25;5363204;33;34083;-86
2022/06/07 11:19:10;;;;;;;0.85;0.77;;;;;;;34.01;27.60;99947.53;5359206;33;34509;-86
2022/06/07 11:22:22;;;;;;;0.85;0.70;;;;;;;34.19;28.02;99944.56;5360667;33;33453;-85
2022/06/07 11:25:33;;;;;;;0.70;0.70;;;;;;;34.55;28.37;99949.41;5358634;33;34808;-85
2022/06/07 11:28:38;;;;;;;0.50;0.50;;;;;;;34.60;27.15;99948.34;5361772;33;32838;-90
2022/06/07 11:31:44;;;;;;;1.05;0.57;;;;;;;35.55;25.13;99934.88;5360652;33;33987;-90
2022/06/07 11:34:47;;;;;;;1.65;0.73;;;;;;;36.08;24.38;99932.75;5359826;33;36221;-87
2022/06/07 11:38:20;;;;;;;1.40;0.98;;;;;;;37.29;22.95;99934.00;5360006;33;33847;-86
2022/06/07 11:41:38;;;;;;;2.50;0.57;;;;;;;38.25;21.22;99937.88;5353452;33;33906;-86
2022/06/07 11:44:41;;;;;;;0.50;0.47;;;;;;;38.55;21.01;99921.94;5362839;33;33626;-86
2022/06/07 11:47:44;;;;;;;0.55;0.50;;;;;;;38.53;22.44;99917.87;5345057;33;34122;-86
2022/06/07 11:50:58;;;;;;;0.65;0.60;;;;;;;37.26;23.21;99920.69;5364099;33;34049;-86
2022/06/07 11:54:04;;;;;;;1.25;0.50;;;;;;;37.90;22.25;99907.91;5357989;33;34597;-85
2022/06/07 11:57:28;;;;;;;0.62;0.40;;;;;;;37.21;23.40;99908.59;5359315;33;33749;-86
2022/06/07 12:00:30;;;;;;;0.65;0.55;;;;;;;35.23;25.50;99901.16;5352734;33;33773;-86
2022/06/07 12:03:34;;;;;;;0.47;0.47;;;;;;;36.82;23.73;99892.88;5360450;33;34022;-86
2022/06/07 12:06:39;;;;;;;0.45;0.30;;;;;;;38.41;21.57;99893.59;5363083;33;33852;-86
2022/06/07 12:09:54;;;;;;;0.75;0.65;;;;;;;39.67;19.73;99881.97;5360879;33;35284;-86
2022/06/07 12:12:57;;;;;;;0.30;0.30;;;;;;;40.63;19.26;99881.97;5360749;33;33726;-86
2022/06/07 12:16:00;;;;;;;1.05;0.45;;;;;;;41.06;17.63;99872.97;5365883;33;34478;-86
2022/06/07 12:19:24;;;;;;;0.40;0.37;;;;;;;40.04;18.71;99878.28;5356026;33;34972;-86
2022/06/07 12:22:38;;;;;;;0.50;0.50;;;;;;;38.47;20.13;99883.62;5366756;33;35033;-90
2022/06/07 12:25:41;;;;;;;0.40;0.40;;;;;;;38.91;21.53;99874.62;5362915;33;33580;-87
2022/06/07 12:28:52;;;;;;;0.75;0.40;;;;;;;40.38;19.54;99870.53;5360876;33;33876;-86
2022/06/07 12:32:06;;;;;;;0.57;0.57;;;;;;;40.99;18.15;99868.06;5360578;33;33977;-86
2022/06/07 12:35:20;;;;;;;0.40;0.40;;;;;;;41.92;17.65;99874.03;5360792;33;34946;-86
2022/06/07 12:38:23;;;;;;;0.68;0.68;;;;;;;40.32;19.56;99875.72;5372960;33;34705;-86
2022/06/07 12:41:27;;;;;;;1.42;0.50;;;;;;;40.12;19.54;99868.69;5365720;33;32431;-86
2022/06/07 12:44:42;;;;;;;0.50;0.50;;;;;;;40.71;19.42;99861.06;5365510;33;34962;-85
2022/06/07 12:47:46;;;;;;;1.35;0.65;;;;;;;40.60;19.07;99865.00;5358284;33;32456;-86
2022/06/07 12:50:49;;;;;;;0.60;0.60;;;;;;;40.70;18.21;99864.31;5360653;33;34446;-86
2022/06/07 12:54:06;;;;;;;0.70;0.70;;;;;;;40.86;18.47;99863.97;5371698;33;33827;-86
2022/06/07 12:57:33;;;;;;;0.65;0.60;;;;;;;42.07;17.79;99853.00;5360617;33;34626;-86
2022/06/07 13:00:43;;;;;;;0.70;0.70;;;;;;;43.73;15.52;99850.41;5347016;33;32795;-83
2022/06/07 13:03:45;;;;;;;0.70;0.60;;;;;;;43.42;16.55;99845.31;5352573;33;33810;-83
2022/06/07 13:06:58;;;;;;;0.60;0.60;;;;;;;43.35;15.39;99838.88;5355336;33;33696;-83
2022/06/07 13:10:28;;;;;;;0.65;0.65;;;;;;;44.18;15.21;99834.22;5362185;33;33721;-88
2022/06/07 13:13:36;;;;;;;0.88;0.85;;;;;;;44.84;14.90;99826.66;5359039;33;34970;-84
2022/06/07 13:16:42;;;;;;;1.75;0.60;;;;;;;44.92;14.38;99820.44;5355932;33;209082;-84
2022/06/07 13:19:45;;;;;;;0.85;0.60;;;;;;;45.03;14.99;99826.00;5342989;33;34055;-86
2022/06/07 13:22:48;;;;;;;0.70;0.70;;;;;;;45.18;13.92;99827.44;5343446;33;33932;-84
2022/06/07 13:25:54;;;;;;;0.70;0.70;;;;;;;43.34;15.63;99825.94;5348943;33;32392;-84
2022/06/07 13:29:09;;;;;;;0.93;0.93;;;;;;;44.40;14.70;99834.03;5348882;33;32456;-83
2022/06/07 13:32:25;;;;;;;0.82;0.82;;;;;;;43.74;15.79;99829.34;5364294;33;34091;-83
2022/06/07 13:35:37;;;;;;;1.35;0.82;;;;;;;44.46;14.95;99829.50;5361890;33;34831;-84
2022/06/07 13:38:40;;;;;;;0.90;0.90;;;;;;;44.50;14.97;99825.41;5346504;33;33921;-84
2022/06/07 13:41:51;;;;;;;1.10;1.10;;;;;;;42.33;16.29;99822.69;5347888;33;34151;-85
2022/06/07 13:44:57;;;;;;;0.95;0.90;;;;;;;41.34;17.95;99818.56;5354432;33;34497;-85
2022/06/07 13:47:59;;;;;;;2.25;1.15;;;;;;;40.00;18.27;99816.22;5356736;33;34414;-84
2022/06/07 13:54:25;;;;;;;1.37;1.27;;;;;;;40.52;17.98;99816.19;5371837;33;33855;-84
2022/06/07 13:57:29;;;;;;;1.33;1.20;;;;;;;39.27;19.31;99818.72;5362911;33;33733;-85
2022/06/07 14:00:32;;;;;;;3.00;1.27;;;;;;;37.47;20.73;99820.03;5373791;33;34573;-85
2022/06/07 14:03:38;;;;;;;1.67;1.58;;;;;;;35.48;21.61;99819.84;5373248;33;33831;-85
2022/06/07 14:06:42;;;;;;;1.60;1.50;;;;;;;34.42;23.41;99822.75;5368570;33;34729;-85
2022/06/07 14:09:45;;;;;;;1.70;1.60;;;;;;;34.06;24.46;99818.84;5361449;33;35433;-85
2022/06/07 14:12:48;;;;;;;1.80;1.70;;;;;;;33.72;26.46;99808.91;5360830;33;35364;-85
2022/06/07 14:15:52;;;;;;;2.42;1.42;;;;;;;33.94;25.70;99809.63;5362157;33;33601;-85
2022/06/07 14:18:56;;;;;;;1.70;1.50;;;;;;;34.13;26.65;99800.69;5361068;33;35467;-86
2022/06/07 14:22:09;;;;;;;1.60;1.50;;;;;;;34.38;25.34;99801.47;5361241;33;34927;-90
2022/06/07 14:25:18;;;;;;;4.62;1.95;;;;;;;34.20;26.22;99798.94;5369033;33;34929;-86
2022/06/07 14:28:22;;;;;;;2.42;1.50;;;;;;;34.00;26.89;99799.84;5368032;33;34168;-87
2022/06/07 14:31:34;;;;;;;1.67;1.58;;;;;;;34.03;25.51;99791.59;5359321;33;32495;-87
2022/06/07 14:38:40;;;;;;;1.80;1.70;;;;;;;33.27;26.57;99783.78;6080487;27;20437;-85
2022/06/07 14:41:44;;;;;;;1.48;1.37;;;;;;;32.82;27.63;99792.88;5381869;33;34327;-84
2022/06/07 14:44:47;;;;;;;3.05;1.80;;;;;;;32.39;28.09;99783.69;5368158;33;32447;-85
2022/06/07 14:47:56;;;;;;;2.15;2.00;;;;;;;32.15;28.60;99784.34;5380672;33;34814;-85
2022/06/07 14:51:00;;;;;;;1.85;1.75;;;;;;;31.46;30.58;99784.62;5383581;33;34623;-86
2022/06/07 14:54:05;;;;;;;2.10;1.95;;;;;;;31.32;31.43;99777.25;5384186;33;33875;-86
2022/06/07 14:57:23;;;;;;;2.12;1.92;;;;;;;31.02;30.80;99772.75;5372715;33;33259;-86
2022/06/07 15:00:26;;;;;;;2.10;2.00;;;;;;;30.85;31.26;99773.59;5378479;33;34093;-86
2022/06/07 15:03:30;;;;;;;2.45;2.25;;;;;;;30.71;31.62;99776.50;5393685;33;35405;-86
2022/06/07 15:06:40;;;;;;;2.35;2.15;;;;;;;30.60;32.09;99766.88;5372236;33;34105;-86
2022/06/07 15:09:42;;;;;;;2.30;2.10;;;;;;;30.17;33.55;99762.88;5369804;33;32331;-87
2022/06/07 15:12:46;;;;;;;2.33;2.12;;;;;;;30.11;32.99;99766.16;5386479;33;34778;-87
2022/06/07 15:15:50;;;;;;;2.85;2.17;;;;;;;29.90;33.36;99765.94;5389612;33;34433;-87
2022/06/07 15:18:54;;;;;;;2.37;2.17;;;;;;;29.84;33.55;99765.25;5383245;33;34183;-86
